Time;durP1;ratioP1;P1;durP2;ratioP2;P2;SDS_P1;SDS_P2;PMS_P1;PMS_P2;Temp;Humidity;BMP_temperature;BMP_pressure;BME280_temperature;BME280_humidity;BME280_pressure;Samples;Min_cycle;Max_cycle;Signal;HPM_P1;HPM_P2
2021/09/26 00:01:51;;;;;;;82.63;33.33;;;;;;;11.95;100.00;101558.38;5094016;28;20388;-74
2021/09/26 00:04:16;;;;;;;82.45;36.38;;;;;;;11.98;100.00;101553.63;5093551;28;20032;-76
2021/09/26 00:06:42;;;;;;;78.80;34.22;;;;;;;11.99;100.00;101549.97;5093929;28;20044;-75
2021/09/26 00:09:07;;;;;;;73.25;31.00;;;;;;;12.01;100.00;101543.69;5093427;28;20032;-77
2021/09/26 00:11:33;;;;;;;76.40;34.05;;;;;;;12.00;100.00;101540.16;5093409;28;20039;-75
2021/09/26 00:13:58;;;;;;;72.70;33.30;;;;;;;12.02;100.00;101546.22;5093232;28;20467;-76
2021/09/26 00:16:24;;;;;;;80.78;34.38;;;;;;;12.05;100.00;101545.13;5092760;28;20436;-76
2021/09/26 00:18:49;;;;;;;75.40;31.90;;;;;;;12.06;100.00;101547.66;5093747;28;20115;-76
2021/09/26 00:21:16;;;;;;;84.15;35.15;;;;;;;12.08;100.00;101552.84;5074841;28;20032;-76
2021/09/26 00:23:41;;;;;;;77.38;33.80;;;;;;;12.09;100.00;101544.72;5093327;28;20028;-75
2021/09/26 00:26:07;;;;;;;68.43;32.50;;;;;;;12.09;100.00;101547.38;5093517;28;20536;-75
2021/09/26 00:28:35;;;;;;;72.93;32.13;;;;;;;12.09;100.00;101547.38;5093138;28;20036;-76
2021/09/26 00:31:00;;;;;;;74.10;33.08;;;;;;;12.14;100.00;101546.97;5093297;28;20036;-75
2021/09/26 00:33:26;;;;;;;78.55;35.22;;;;;;;12.16;100.00;101545.84;5092464;28;20071;-76
2021/09/26 00:35:51;;;;;;;86.93;36.35;;;;;;;12.20;100.00;101540.28;5093582;28;20040;-75
2021/09/26 00:38:19;;;;;;;79.75;34.88;;;;;;;12.22;100.00;101546.31;5092642;28;20369;-76
2021/09/26 00:40:46;;;;;;;77.85;32.35;;;;;;;12.20;100.00;101549.13;5093135;28;20036;-75
2021/09/26 00:43:12;;;;;;;73.70;32.80;;;;;;;12.20;100.00;101543.78;5074860;28;20423;-77
2021/09/26 00:45:37;;;;;;;74.82;33.80;;;;;;;12.22;100.00;101544.47;5093176;28;20024;-76
2021/09/26 00:48:03;;;;;;;78.05;34.05;;;;;;;12.24;100.00;101536.34;5092989;28;20054;-75
2021/09/26 00:50:28;;;;;;;78.75;36.38;;;;;;;12.25;100.00;101538.88;5092611;28;20035;-76
2021/09/26 00:52:54;;;;;;;80.50;35.70;;;;;;;12.27;100.00;101536.94;5092981;28;20555;-75
2021/09/26 00:55:19;;;;;;;71.55;33.78;;;;;;;12.27;100.00;101544.09;5092333;28;20032;-76
2021/09/26 00:57:45;;;;;;;73.10;32.75;;;;;;;12.27;100.00;101542.28;5092901;28;20034;-75
2021/09/26 01:00:14;;;;;;;69.88;31.65;;;;;;;12.25;100.00;101540.72;5092959;28;20038;-75
2021/09/26 01:02:39;;;;;;;70.50;33.08;;;;;;;12.22;100.00;101546.31;5092955;28;20032;-75
2021/09/26 01:05:06;;;;;;;76.40;32.88;;;;;;;12.21;100.00;101545.47;5093162;28;20038;-75
2021/09/26 01:07:39;;;;;;;68.63;31.65;;;;;;;12.18;100.00;101537.72;5092244;28;20039;-75
2021/09/26 01:10:09;;;;;;;75.25;33.72;;;;;;;12.16;100.00;101537.84;5092782;28;20065;-75
2021/09/26 01:12:47;;;;;;;78.53;33.90;;;;;;;12.19;100.00;101533.25;5092023;28;20059;-76
2021/09/26 01:15:42;;;;;;;82.38;34.55;;;;;;;12.19;100.00;101539.41;5092847;28;20028;-75
2021/09/26 01:18:36;;;;;;;75.82;33.88;;;;;;;12.16;100.00;101531.69;5036781;28;20388;-76
2021/09/26 01:21:26;;;;;;;81.20;34.00;;;;;;;12.13;100.00;101521.28;5092548;28;20118;-76
2021/09/26 01:24:48;;;;;;;83.93;35.42;;;;;;;12.14;100.00;101522.97;5093058;28;20518;-75
2021/09/26 01:27:46;;;;;;;78.88;35.53;;;;;;;12.10;100.00;101519.72;4990363;28;20038;-76
2021/09/26 01:30:20;;;;;;;73.45;31.67;;;;;;;12.04;100.00;101519.41;5092043;28;20491;-76
2021/09/26 01:32:54;;;;;;;78.68;34.50;;;;;;;11.97;100.00;101511.06;5092493;28;20050;-75
2021/09/26 01:35:22;;;;;;;86.45;36.15;;;;;;;11.95;100.00;101507.72;5092103;28;20099;-76
2021/09/26 01:38:09;;;;;;;74.15;33.40;;;;;;;11.92;100.00;101511.44;5092548;28;20035;-76
2021/09/26 01:41:00;;;;;;;76.05;33.22;;;;;;;11.89;100.00;101519.69;5091913;28;20036;-75
2021/09/26 01:43:33;;;;;;;83.07;35.22;;;;;;;11.86;100.00;101509.31;5092253;28;20421;-75
2021/09/26 01:46:04;;;;;;;80.07;32.78;;;;;;;11.90;100.00;101515.25;5092514;28;20067;-76
2021/09/26 01:48:48;;;;;;;76.57;32.85;;;;;;;11.90;100.00;101509.91;5091693;28;20081;-76
2021/09/26 01:51:15;;;;;;;92.03;37.13;;;;;;;11.91;100.00;101508.91;5092550;28;20020;-76
2021/09/26 01:53:43;;;;;;;77.72;35.33;;;;;;;11.92;100.00;101515.94;5091610;28;20311;-76
2021/09/26 01:56:12;;;;;;;71.93;31.73;;;;;;;11.89;100.00;101498.38;5092423;28;20031;-75
2021/09/26 01:58:37;;;;;;;83.22;35.05;;;;;;;11.88;100.00;101504.66;5091439;28;20032;-76
2021/09/26 02:01:03;;;;;;;86.75;35.20;;;;;;;11.90;100.00;101501.91;5092264;28;20464;-75
2021/09/26 02:03:31;;;;;;;82.10;33.70;;;;;;;11.88;100.00;101514.50;5073739;28;20032;-76
2021/09/26 02:05:57;;;;;;;94.18;37.33;;;;;;;11.86;100.00;101509.31;5092275;28;20089;-75
2021/09/26 02:08:23;;;;;;;77.82;33.92;;;;;;;11.88;100.00;101512.66;5092217;28;20032;-75
2021/09/26 02:10:50;;;;;;;78.28;33.83;;;;;;;11.86;100.00;101503.97;5091995;28;20040;-75
2021/09/26 02:13:16;;;;;;;76.90;33.70;;;;;;;11.85;100.00;101509.44;5092111;28;20048;-75
2021/09/26 02:15:47;;;;;;;72.18;31.27;;;;;;;11.86;100.00;101500.47;5091140;28;20122;-75
2021/09/26 02:18:13;;;;;;;78.63;30.98;;;;;;;11.86;100.00;101503.13;5092162;28;20043;-75
2021/09/26 02:20:39;;;;;;;85.68;35.70;;;;;;;11.86;100.00;101505.81;5091239;28;20406;-75
2021/09/26 02:23:06;;;;;;;78.93;34.72;;;;;;;11.89;100.00;101511.72;5092049;28;20038;-75
2021/09/26 02:25:32;;;;;;;72.25;31.88;;;;;;;11.92;100.00;101515.94;5091243;28;20024;-76
2021/09/26 02:27:58;;;;;;;78.55;33.05;;;;;;;11.94;100.00;101504.22;5092399;28;20036;-75
2021/09/26 02:30:25;;;;;;;70.95;31.85;;;;;;;11.97;100.00;101505.75;5091768;28;20038;-76
2021/09/26 02:32:50;;;;;;;73.22;32.85;;;;;;;12.01;100.00;101507.19;5094576;28;20040;-75
2021/09/26 02:35:16;;;;;;;72.45;32.35;;;;;;;12.04;100.00;101504.25;5095956;28;20445;-75
2021/09/26 02:37:42;;;;;;;72.40;32.33;;;;;;;12.09;100.00;101503.84;5094734;28;20487;-75
2021/09/26 02:40:09;;;;;;;75.30;33.67;;;;;;;12.12;100.00;101495.56;5095803;28;20077;-75
2021/09/26 02:43:06;;;;;;;75.88;34.25;;;;;;;12.17;100.00;101499.53;5094402;28;20040;-75
2021/09/26 02:45:48;;;;;;;65.72;30.25;;;;;;;12.21;100.00;101505.47;5007093;28;20048;-76
2021/09/26 02:48:22;;;;;;;74.43;32.83;;;;;;;12.23;100.00;101500.81;5095417;28;20464;-75
2021/09/26 02:50:51;;;;;;;82.88;34.38;;;;;;;12.27;100.00;101499.59;5094772;28;20036;-75
2021/09/26 02:53:17;;;;;;;76.78;34.10;;;;;;;12.31;100.00;101502.81;5095215;28;20038;-75
2021/09/26 02:55:45;;;;;;;75.57;35.00;;;;;;;12.32;100.00;101494.69;5076905;28;20430;-75
2021/09/26 02:58:11;;;;;;;75.85;33.70;;;;;;;12.36;100.00;101503.28;5095393;28;20028;-75
2021/09/26 03:00:39;;;;;;;73.13;32.60;;;;;;;12.39;100.00;101515.50;5094243;28;20094;-77
2021/09/26 03:03:26;;;;;;;69.57;32.47;;;;;;;12.41;100.00;101503.72;5095061;28;20053;-76
2021/09/26 03:05:52;;;;;;;71.32;32.58;;;;;;;12.45;100.00;101497.13;5094386;28;20055;-76
2021/09/26 03:08:18;;;;;;;71.47;32.13;;;;;;;12.48;100.00;101491.50;5095146;28;20064;-76
2021/09/26 03:10:46;;;;;;;70.85;33.63;;;;;;;12.50;100.00;101478.88;5094524;28;20040;-76
2021/09/26 03:13:12;;;;;;;69.13;32.65;;;;;;;12.53;100.00;101477.75;5094387;28;20056;-76
2021/09/26 03:15:38;;;;;;;71.28;32.25;;;;;;;12.56;100.00;101482.81;5094477;28;20521;-76
2021/09/26 03:18:04;;;;;;;72.93;33.13;;;;;;;12.57;100.00;101479.19;5094573;28;20032;-76
2021/09/26 03:20:29;;;;;;;69.10;31.80;;;;;;;12.59;100.00;101476.38;5094585;28;20110;-75
2021/09/26 03:22:55;;;;;;;61.83;29.52;;;;;;;12.61;100.00;101485.09;5093928;28;20117;-75
2021/09/26 03:25:21;;;;;;;67.68;31.67;;;;;;;12.62;100.00;101479.59;5094689;28;20388;-76
2021/09/26 03:27:47;;;;;;;57.08;28.85;;;;;;;12.63;100.00;101483.09;5094143;28;20028;-74
2021/09/26 03:30:13;;;;;;;63.60;28.80;;;;;;;12.64;100.00;101474.13;5094367;28;20036;-76
2021/09/26 03:32:38;;;;;;;60.33;29.33;;;;;;;12.67;100.00;101480.06;5093905;28;20039;-76
2021/09/26 03:35:05;;;;;;;58.25;29.77;;;;;;;12.69;100.00;101470.06;5094606;28;20024;-75
2021/09/26 03:37:31;;;;;;;58.90;29.52;;;;;;;12.72;100.00;101470.75;5094235;28;20070;-76
2021/09/26 03:39:57;;;;;;;57.20;28.77;;;;;;;12.74;100.00;101474.16;5093830;28;20036;-76
2021/09/26 03:42:22;;;;;;;60.67;27.23;;;;;;;12.75;100.00;101474.03;5094098;28;20040;-75
2021/09/26 03:44:47;;;;;;;59.75;28.55;;;;;;;12.77;100.00;101465.88;5093462;28;20040;-76
2021/09/26 03:47:13;;;;;;;51.97;28.60;;;;;;;12.78;100.00;101459.53;5094041;28;20487;-76
2021/09/26 03:49:38;;;;;;;60.90;29.27;;;;;;;12.80;100.00;101462.94;5093717;28;20432;-76
2021/09/26 03:52:04;;;;;;;57.17;27.77;;;;;;;12.82;100.00;101461.81;5094141;28;20085;-75
2021/09/26 03:54:30;;;;;;;52.17;27.50;;;;;;;12.83;100.00;101457.31;5094314;28;20054;-76
2021/09/26 03:56:55;;;;;;;56.05;29.15;;;;;;;12.85;100.00;101463.34;5093538;28;20124;-76
2021/09/26 03:59:20;;;;;;;61.83;29.02;;;;;;;12.86;100.00;101455.19;5094146;28;20038;-76
2021/09/26 04:01:46;;;;;;;60.60;29.05;;;;;;;12.90;100.00;101469.13;5093198;28;20106;-76
2021/09/26 04:04:12;;;;;;;55.05;27.52;;;;;;;12.92;100.00;101464.47;5094028;28;20028;-75
2021/09/26 04:06:37;;;;;;;53.75;28.52;;;;;;;12.93;100.00;101452.81;5075670;28;20039;-75
2021/09/26 04:09:04;;;;;;;67.00;30.52;;;;;;;12.94;100.00;101454.50;5093328;28;20064;-75
2021/09/26 04:11:29;;;;;;;59.10;29.75;;;;;;;12.97;100.00;101467.59;5094114;28;20097;-75
2021/09/26 04:13:55;;;;;;;60.63;29.40;;;;;;;12.99;100.00;101460.28;5093177;28;20486;-75
2021/09/26 04:16:20;;;;;;;63.40;30.02;;;;;;;13.02;100.00;101467.16;5094044;28;20036;-76
2021/09/26 04:18:46;;;;;;;59.75;29.33;;;;;;;13.04;100.00;101457.19;5093075;28;20137;-75
2021/09/26 04:21:11;;;;;;;66.85;30.38;;;;;;;13.08;100.00;101468.41;5093370;28;20464;-75
2021/09/26 04:23:36;;;;;;;63.22;31.73;;;;;;;13.09;100.00;101462.09;5093347;28;20381;-75
2021/09/26 04:26:02;;;;;;;62.20;31.27;;;;;;;13.10;100.00;101464.63;5074824;28;20042;-75
2021/09/26 04:28:28;;;;;;;62.67;30.33;;;;;;;13.11;100.00;101457.47;5093620;28;20024;-75
2021/09/26 04:30:53;;;;;;;61.17;31.50;;;;;;;13.13;100.00;101458.16;5092783;28;20032;-75
2021/09/26 04:33:19;;;;;;;66.55;31.92;;;;;;;13.14;100.00;101451.84;5093544;28;20064;-75
2021/09/26 04:35:44;;;;;;;60.97;31.05;;;;;;;13.16;100.00;101461.38;5092761;28;20028;-76
2021/09/26 04:38:10;;;;;;;64.53;32.15;;;;;;;13.19;100.00;101454.94;5093317;28;20020;-75
2021/09/26 04:40:37;;;;;;;75.97;33.55;;;;;;;13.21;100.00;101460.97;5093582;28;20442;-75
2021/09/26 04:43:02;;;;;;;66.57;32.53;;;;;;;13.25;100.00;101458.88;5092357;28;20031;-75
2021/09/26 04:45:28;;;;;;;73.95;34.05;;;;;;;13.28;100.00;101471.94;5093398;28;20500;-75
2021/09/26 04:47:53;;;;;;;66.22;32.13;;;;;;;13.30;100.00;101465.47;5092534;28;20031;-75
2021/09/26 04:50:18;;;;;;;64.10;32.70;;;;;;;13.33;100.00;101467.00;5092849;28;20119;-76
2021/09/26 04:52:44;;;;;;;67.85;33.03;;;;;;;13.35;100.00;101462.41;5092986;28;20042;-75
2021/09/26 04:55:10;;;;;;;62.67;32.92;;;;;;;13.37;100.00;101460.44;5091917;28;20040;-75
2021/09/26 04:57:35;;;;;;;68.88;34.15;;;;;;;13.37;100.00;101463.94;5092682;28;20032;-75
2021/09/26 05:00:05;;;;;;;65.43;32.33;;;;;;;13.39;100.00;101456.63;5092473;28;20563;-76
2021/09/26 05:02:31;;;;;;;73.10;34.40;;;;;;;13.42;100.00;101460.00;5093020;28;20429;-75
2021/09/26 05:04:57;;;;;;;63.22;31.80;;;;;;;13.44;100.00;101458.88;5092319;28;20071;-75
2021/09/26 05:07:22;;;;;;;64.07;34.17;;;;;;;13.45;100.00;101460.56;5092796;28;20384;-75
2021/09/26 05:09:47;;;;;;;63.05;32.90;;;;;;;13.45;100.00;101460.56;5092154;28;20062;-77
2021/09/26 05:12:13;;;;;;;69.40;32.75;;;;;;;13.45;100.00;101454.38;5074439;28;20379;-76
2021/09/26 05:14:39;;;;;;;64.78;33.30;;;;;;;13.47;100.00;101449.75;5092536;28;20070;-76
2021/09/26 05:17:06;;;;;;;64.75;32.78;;;;;;;13.48;100.00;101462.09;5092172;28;20032;-75
2021/09/26 05:19:32;;;;;;;66.07;32.83;;;;;;;13.49;100.00;101437.91;5092740;28;20032;-76
2021/09/26 05:21:57;;;;;;;66.22;32.92;;;;;;;13.51;100.00;101448.44;5092376;28;20036;-76
2021/09/26 05:24:22;;;;;;;64.90;33.30;;;;;;;13.53;100.00;101441.97;5092407;28;20486;-75
2021/09/26 05:26:48;;;;;;;63.70;33.90;;;;;;;13.56;100.00;101448.88;5092733;28;20066;-75
2021/09/26 05:29:13;;;;;;;66.05;33.70;;;;;;;13.56;100.00;101446.19;5092009;28;20028;-76
2021/09/26 05:31:39;;;;;;;68.65;34.78;;;;;;;13.58;100.00;101446.88;5092567;28;20032;-75
2021/09/26 05:34:05;;;;;;;65.40;32.33;;;;;;;13.59;100.00;101451.25;5091797;28;20042;-75
2021/09/26 05:36:30;;;;;;;69.90;33.05;;;;;;;13.59;100.00;101451.25;5092529;28;20143;-75
2021/09/26 05:38:55;;;;;;;59.38;32.60;;;;;;;13.60;100.00;101450.28;5091990;28;20483;-76
2021/09/26 05:41:21;;;;;;;66.68;34.10;;;;;;;13.60;100.00;101450.28;5092592;28;20449;-75
2021/09/26 05:43:47;;;;;;;74.97;34.22;;;;;;;13.62;100.00;101448.28;5092198;28;20127;-75
2021/09/26 05:46:12;;;;;;;69.95;35.17;;;;;;;13.64;100.00;101462.34;5091838;28;20047;-75
2021/09/26 05:48:37;;;;;;;72.18;34.08;;;;;;;13.67;100.00;101463.91;5092468;28;20529;-75
2021/09/26 05:51:03;;;;;;;72.68;34.50;;;;;;;13.68;100.00;101461.09;5092039;28;20074;-75
2021/09/26 05:53:29;;;;;;;76.25;35.90;;;;;;;13.70;100.00;101463.59;5092093;28;20031;-75
2021/09/26 05:55:54;;;;;;;65.80;33.85;;;;;;;13.73;100.00;101460.66;5091725;28;20536;-76
2021/09/26 05:58:20;;;;;;;66.82;33.88;;;;;;;13.74;100.00;101463.19;5092470;28;20062;-75
2021/09/26 06:00:46;;;;;;;61.78;34.00;;;;;;;13.75;100.00;101469.38;5092301;28;20059;-76
2021/09/26 06:03:15;;;;;;;69.60;33.38;;;;;;;13.78;100.00;101468.22;5091481;28;20172;-75
2021/09/26 06:05:42;;;;;;;66.75;33.03;;;;;;;13.79;100.00;101465.41;5093894;28;20468;-75
2021/09/26 06:08:08;;;;;;;61.58;32.35;;;;;;;13.80;100.00;101461.75;5095713;28;20032;-75
2021/09/26 06:10:34;;;;;;;66.00;31.80;;;;;;;13.82;100.00;101461.63;5096103;28;20040;-75
2021/09/26 06:12:59;;;;;;;67.22;33.03;;;;;;;13.84;100.00;101467.66;5095290;28;20064;-76
2021/09/26 06:15:25;;;;;;;64.07;32.47;;;;;;;13.87;100.00;101472.75;5096100;28;20036;-75
2021/09/26 06:17:50;;;;;;;62.78;31.75;;;;;;;13.88;100.00;101469.06;5095667;28;20451;-75
2021/09/26 06:20:16;;;;;;;61.00;32.67;;;;;;;13.90;100.00;101475.94;5095383;28;20118;-75
2021/09/26 06:22:41;;;;;;;61.60;32.72;;;;;;;13.91;100.00;101469.63;5095926;28;20032;-75
2021/09/26 06:25:08;;;;;;;56.00;29.85;;;;;;;13.93;100.00;101461.44;5095293;28;20034;-75
2021/09/26 06:27:33;;;;;;;60.20;32.33;;;;;;;13.95;100.00;101456.78;5095801;28;20085;-75
2021/09/26 06:29:59;;;;;;;60.83;31.75;;;;;;;13.98;100.00;101466.34;5095212;28;20028;-76
2021/09/26 06:32:26;;;;;;;61.90;32.63;;;;;;;13.99;100.00;101463.53;5095397;28;20029;-75
2021/09/26 06:34:51;;;;;;;52.67;30.33;;;;;;;14.02;100.00;101470.44;5095625;28;20032;-75
2021/09/26 06:37:17;;;;;;;58.00;31.13;;;;;;;14.05;100.00;101468.28;5094663;28;20031;-75
2021/09/26 06:39:42;;;;;;;61.85;33.38;;;;;;;14.10;100.00;101482.06;5095120;28;20028;-75
2021/09/26 06:42:08;;;;;;;58.00;32.25;;;;;;;14.17;100.00;101482.34;5094963;28;20082;-74
2021/09/26 06:44:34;;;;;;;61.70;32.17;;;;;;;14.22;100.00;101469.34;5095582;28;20028;-74
2021/09/26 06:47:00;;;;;;;57.90;30.92;;;;;;;14.28;100.00;101476.78;5095221;28;20024;-74
2021/09/26 06:49:25;;;;;;;56.28;32.33;;;;;;;14.35;100.00;101484.25;5095876;28;20381;-75
2021/09/26 06:51:50;;;;;;;51.05;29.83;;;;;;;14.40;100.00;101485.47;5095332;28;20036;-74
2021/09/26 06:54:16;;;;;;;49.83;28.52;;;;;;;14.47;100.00;101493.75;5059953;28;20048;-75
2021/09/26 06:56:41;;;;;;;52.85;28.38;;;;;;;14.54;99.91;101496.66;5095169;28;20032;-74
2021/09/26 06:59:07;;;;;;;45.20;27.65;;;;;;;14.61;98.83;101500.47;5094862;28;20028;-75
2021/09/26 07:01:32;;;;;;;47.15;27.83;;;;;;;14.66;98.53;101483.94;5094950;28;20031;-74
2021/09/26 07:04:01;;;;;;;47.33;27.67;;;;;;;14.72;97.92;101489.56;5095130;28;20039;-75
2021/09/26 07:06:27;;;;;;;42.03;27.20;;;;;;;14.78;97.44;101493.47;5076325;28;20032;-74
2021/09/26 07:08:52;;;;;;;39.72;25.83;;;;;;;14.84;96.89;101497.38;5094755;28;20030;-74
2021/09/26 07:11:20;;;;;;;45.40;26.63;;;;;;;14.90;97.16;101505.66;5094076;28;20029;-74
2021/09/26 07:13:46;;;;;;;43.50;26.40;;;;;;;15.01;96.82;101504.59;5094536;28;20083;-73
2021/09/26 07:16:11;;;;;;;38.47;25.48;;;;;;;15.09;96.48;101507.38;5094303;28;20457;-74
2021/09/26 07:18:36;;;;;;;38.97;25.67;;;;;;;15.16;95.97;101505.75;5094290;28;20040;-74
2021/09/26 07:21:02;;;;;;;41.78;28.40;;;;;;;15.23;95.91;101507.84;5094514;28;20085;-74
2021/09/26 07:23:27;;;;;;;40.63;26.42;;;;;;;15.31;95.16;101502.53;5094207;28;20036;-74
2021/09/26 07:25:53;;;;;;;37.88;24.33;;;;;;;15.43;94.88;101511.19;5094655;28;20024;-74
2021/09/26 07:28:18;;;;;;;36.28;23.13;;;;;;;15.56;94.34;101514.31;5094479;28;20028;-75
2021/09/26 07:30:43;;;;;;;44.10;24.02;;;;;;;15.69;94.00;101511.22;5094646;28;20028;-75
2021/09/26 07:33:09;;;;;;;33.60;22.70;;;;;;;15.78;92.83;101513.00;5093596;28;20039;-75
2021/09/26 07:35:34;;;;;;;36.20;23.30;;;;;;;15.91;92.42;101512.56;5094176;28;20035;-74
2021/09/26 07:38:00;;;;;;;30.13;22.13;;;;;;;16.10;92.09;101513.38;5094657;28;20032;-76
2021/09/26 07:40:25;;;;;;;31.02;21.48;;;;;;;16.22;91.04;101499.50;5093705;28;20091;-75
2021/09/26 07:42:50;;;;;;;32.95;21.15;;;;;;;16.34;91.18;101497.38;5094453;28;20070;-75
2021/09/26 07:45:16;;;;;;;32.08;22.52;;;;;;;16.39;90.88;101494.19;5093806;28;20024;-75
2021/09/26 07:47:42;;;;;;;33.30;22.17;;;;;;;16.40;90.51;101499.41;5094313;28;20032;-76
2021/09/26 07:50:08;;;;;;;31.00;20.23;;;;;;;16.50;89.91;101501.97;5094294;28;20383;-75
2021/09/26 07:52:34;;;;;;;26.42;20.02;;;;;;;16.74;89.67;101511.13;5094300;28;20460;-75
2021/09/26 07:54:59;;;;;;;27.27;19.13;;;;;;;17.05;88.18;101516.78;5094505;28;20035;-75
2021/09/26 07:57:25;;;;;;;27.95;19.17;;;;;;;17.41;86.82;101523.72;5093189;28;20218;-75
2021/09/26 07:59:51;;;;;;;31.75;18.50;;;;;;;17.70;85.34;101530.44;5094013;28;20036;-75
2021/09/26 08:02:17;;;;;;;26.02;17.92;;;;;;;17.93;85.31;101536.84;5093364;28;20038;-77
2021/09/26 08:04:43;;;;;;;24.83;17.45;;;;;;;17.96;81.74;101541.88;5091164;28;20107;-77
2021/09/26 08:07:08;;;;;;;25.40;17.85;;;;;;;17.96;81.24;101546.44;5091156;28;20032;-77
2021/09/26 08:09:35;;;;;;;28.15;18.33;;;;;;;17.92;81.62;101558.53;5090447;28;20509;-77
2021/09/26 08:12:00;;;;;;;25.33;18.13;;;;;;;17.91;81.49;101546.06;5090903;28;20044;-75
2021/09/26 08:14:26;;;;;;;25.65;18.35;;;;;;;18.06;81.39;101544.34;5090650;28;20100;-84
2021/09/26 08:16:51;;;;;;;23.77;18.20;;;;;;;18.38;81.84;101542.63;5090715;28;20465;-78
2021/09/26 08:19:16;;;;;;;27.38;17.80;;;;;;;18.49;79.42;101549.47;5090270;28;20082;-84
2021/09/26 08:21:42;;;;;;;26.77;18.80;;;;;;;18.47;79.36;101541.56;5091026;28;20484;-82
2021/09/26 08:24:07;;;;;;;25.15;17.80;;;;;;;18.40;79.02;101540.56;5090880;28;20494;-83
2021/09/26 08:26:34;;;;;;;23.23;18.13;;;;;;;18.38;78.63;101548.00;5090145;28;20562;-76
2021/09/26 08:29:00;;;;;;;23.88;18.00;;;;;;;18.43;79.33;101553.69;5089400;28;20358;-75
2021/09/26 08:31:25;;;;;;;23.77;17.50;;;;;;;18.47;78.16;101546.94;5071735;28;20202;-76
2021/09/26 08:33:50;;;;;;;28.00;18.90;;;;;;;18.45;78.43;101548.13;5090755;28;20040;-74
2021/09/26 08:36:16;;;;;;;28.35;18.80;;;;;;;18.49;77.97;101553.00;5089919;28;20032;-76
2021/09/26 08:38:41;;;;;;;29.05;18.50;;;;;;;18.80;77.55;101545.97;5090608;28;20043;-75
2021/09/26 08:41:07;;;;;;;23.80;17.73;;;;;;;19.16;76.34;101543.59;5093271;28;20162;-78
2021/09/26 08:43:33;;;;;;;25.23;18.50;;;;;;;19.28;75.60;101548.59;5110283;28;20491;-76
2021/09/26 08:45:59;;;;;;;24.83;17.92;;;;;;;19.27;75.36;101552.28;5082225;28;20442;-76
2021/09/26 08:48:27;;;;;;;25.77;17.60;;;;;;;19.26;75.62;101548.75;5086766;28;20027;-76
2021/09/26 08:50:53;;;;;;;28.33;17.35;;;;;;;19.14;74.40;101551.03;5091888;28;20106;-78
2021/09/26 08:53:21;;;;;;;27.35;17.90;;;;;;;19.09;75.14;101549.88;5091484;28;20420;-77
2021/09/26 08:55:46;;;;;;;24.45;18.27;;;;;;;18.98;76.94;101551.13;5092147;28;20028;-81
2021/09/26 08:58:16;;;;;;;26.27;18.02;;;;;;;18.80;74.91;101551.38;5091900;28;20035;-79
2021/09/26 09:00:42;;;;;;;25.75;18.73;;;;;;;18.68;74.94;101556.31;5090698;28;20028;-80
2021/09/26 09:03:12;;;;;;;28.23;18.38;;;;;;;18.56;77.42;101550.47;5091551;28;20040;-78
2021/09/26 09:05:39;;;;;;;25.83;18.45;;;;;;;18.48;75.02;101548.63;5090507;28;20503;-83
2021/09/26 09:08:10;;;;;;;25.45;18.10;;;;;;;18.44;76.03;101551.84;5091331;28;20036;-84
2021/09/26 09:10:45;;;;;;;27.35;18.90;;;;;;;18.43;77.40;101560.94;5093279;28;20443;-79
2021/09/26 09:13:13;;;;;;;24.33;18.08;;;;;;;18.44;77.69;101566.16;5091620;28;20113;-81
2021/09/26 09:15:41;;;;;;;28.23;19.48;;;;;;;18.39;78.10;101573.06;5091130;28;20036;-77
2021/09/26 09:18:06;;;;;;;26.38;19.60;;;;;;;18.34;78.02;101570.91;5091551;28;20530;-84
2021/09/26 09:20:34;;;;;;;28.05;19.52;;;;;;;18.27;79.16;101570.75;5091338;28;20040;-81
2021/09/26 09:23:13;;;;;;;23.65;18.17;;;;;;;18.22;78.90;101574.97;5091910;28;20111;-86
2021/09/26 09:25:46;;;;;;;29.83;19.90;;;;;;;18.19;80.31;101569.94;5090792;28;20032;-85
2021/09/26 09:28:24;;;;;;;29.42;19.77;;;;;;;18.20;80.35;101575.16;5090231;28;20028;-84
2021/09/26 09:30:56;;;;;;;26.73;19.15;;;;;;;18.26;77.69;101577.16;5091402;28;20114;-83
2021/09/26 09:33:23;;;;;;;27.42;18.55;;;;;;;18.37;79.40;101575.13;5090836;28;20531;-79
2021/09/26 09:35:52;;;;;;;28.30;18.73;;;;;;;18.46;79.63;101574.06;5092290;28;20100;-79
2021/09/26 09:38:28;;;;;;;24.80;17.40;;;;;;;18.56;78.53;101577.41;5091657;28;20098;-83
2021/09/26 09:40:53;;;;;;;25.05;18.50;;;;;;;18.74;77.66;101585.25;5093359;28;20085;-85
2021/09/26 09:43:20;;;;;;;26.35;17.30;;;;;;;18.94;76.95;101583.00;5095857;28;20115;-82
2021/09/26 09:45:54;;;;;;;22.83;17.35;;;;;;;19.18;76.71;101576.63;5094737;28;20460;-87
2021/09/26 09:48:23;;;;;;;23.42;17.73;;;;;;;19.38;76.57;101584.28;5095397;28;20353;-85
2021/09/26 09:51:10;;;;;;;25.83;17.10;;;;;;;19.54;74.94;101584.16;5095412;28;20028;-85
2021/09/26 09:53:43;;;;;;;24.52;16.73;;;;;;;19.72;72.58;101589.22;5095059;28;20460;-86
2021/09/26 09:56:17;;;;;;;26.35;17.23;;;;;;;19.98;71.49;101595.28;5095648;28;20032;-84
2021/09/26 09:58:45;;;;;;;27.80;17.08;;;;;;;20.11;71.29;101586.53;5095223;28;20112;-82
2021/09/26 10:01:32;;;;;;;25.27;17.10;;;;;;;20.48;70.38;101585.66;5098708;28;20028;-81
2021/09/26 10:04:02;;;;;;;27.10;17.58;;;;;;;21.06;66.01;101590.34;5080268;28;20047;-82
2021/09/26 10:06:40;;;;;;;22.35;16.25;;;;;;;21.51;64.82;101585.66;5094869;28;20032;-84
2021/09/26 10:09:26;;;;;;;22.90;16.65;;;;;;;22.63;63.12;101577.72;5095520;28;20464;-83
2021/09/26 10:12:00;;;;;;;22.00;15.60;;;;;;;23.38;60.43;101577.81;5076980;28;20497;-82
2021/09/26 10:14:27;;;;;;;27.90;16.50;;;;;;;23.65;58.73;101575.13;5094913;28;20448;-86
2021/09/26 10:16:54;;;;;;;18.85;14.85;;;;;;;23.69;56.78;101573.63;5095287;28;20078;-85
2021/09/26 10:19:21;;;;;;;24.90;15.73;;;;;;;23.41;58.72;101574.69;5095311;28;20067;-82
2021/09/26 10:21:49;;;;;;;21.92;15.82;;;;;;;23.45;58.78;101569.66;5094745;28;20050;-81
2021/09/26 10:24:21;;;;;;;21.33;15.20;;;;;;;24.08;55.43;101580.97;5097340;28;20036;-84
2021/09/26 10:26:47;;;;;;;23.27;16.10;;;;;;;24.06;56.51;101576.78;5094462;28;20028;-83
2021/09/26 10:29:16;;;;;;;17.25;14.50;;;;;;;24.14;56.16;101579.31;5094978;28;20060;-85
2021/09/26 10:31:42;;;;;;;20.35;14.32;;;;;;;24.36;55.69;101576.31;5094137;28;20062;-82
2021/09/26 10:34:08;;;;;;;18.27;13.30;;;;;;;24.74;54.60;101579.16;5095071;28;20060;-81
2021/09/26 10:36:35;;;;;;;18.17;13.38;;;;;;;25.17;52.26;101585.88;5094282;28;20028;-83
2021/09/26 10:39:03;;;;;;;18.83;13.85;;;;;;;25.13;52.75;101581.91;5094838;28;20080;-83
2021/09/26 10:41:30;;;;;;;18.45;13.27;;;;;;;25.28;52.23;101582.44;5094550;28;20047;-85
2021/09/26 10:43:56;;;;;;;16.13;12.52;;;;;;;25.62;50.42;101580.34;5076517;28;20078;-84
2021/09/26 10:46:27;;;;;;;19.85;12.23;;;;;;;25.39;49.71;101582.81;5055856;28;20066;-79
2021/09/26 10:48:55;;;;;;;14.65;11.75;;;;;;;25.12;52.59;101591.13;5072912;28;20468;-79
2021/09/26 10:51:40;;;;;;;16.33;11.15;;;;;;;24.87;51.04;101585.59;5073707;28;20028;-75
2021/09/26 10:54:26;;;;;;;15.50;10.27;;;;;;;24.67;51.08;101585.69;5073811;28;20468;-75
2021/09/26 10:57:11;;;;;;;17.20;10.68;;;;;;;24.24;53.39;101585.16;5073400;28;20346;-81
2021/09/26 10:59:58;;;;;;;13.40;10.00;;;;;;;24.30;51.49;101583.44;5072601;28;20039;-88
2021/09/26 11:02:23;;;;;;;16.15;10.48;;;;;;;24.19;52.23;101576.78;5074181;28;20025;-86
2021/09/26 11:04:50;;;;;;;18.75;12.20;;;;;;;24.28;50.95;101571.94;5073667;28;20349;-85
2021/09/26 11:07:24;;;;;;;17.95;11.10;;;;;;;24.45;51.83;101575.88;5074151;28;20180;-84
2021/09/26 11:10:00;;;;;;;16.88;11.77;;;;;;;24.51;49.24;101582.34;5073465;28;20541;-86